Time;durP1;ratioP1;P1;durP2;ratioP2;P2;SDS_P1;SDS_P2;PMS_P1;PMS_P2;Temp;Humidity;BMP_temperature;BMP_pressure;BME280_temperature;BME280_humidity;BME280_pressure;Samples;Min_cycle;Max_cycle;Signal;HPM_P1;HPM_P2
2021/04/05 00:00:30;;;;;;;43.20;21.77;;;4.20;99.80;;;;;;5030619;28;20457;-83
2021/04/05 00:02:58;;;;;;;49.10;20.53;;;4.30;99.80;;;;;;5030180;28;20467;-86
2021/04/05 00:05:29;;;;;;;47.93;21.60;;;4.20;99.80;;;;;;5035169;28;20548;-83
2021/04/05 00:07:58;;;;;;;48.53;22.30;;;4.20;99.80;;;;;;5034867;28;20481;-85
2021/04/05 00:10:28;;;;;;;51.47;21.83;;;4.20;99.80;;;;;;5035348;28;20448;-84
2021/04/05 00:12:57;;;;;;;44.20;20.80;;;4.20;99.80;;;;;;5034098;28;20504;-83
2021/04/05 00:15:24;;;;;;;59.80;21.70;;;4.20;99.80;;;;;;5034263;28;20549;-82
2021/04/05 00:17:54;;;;;;;54.63;21.07;;;4.20;99.80;;;;;;5034172;28;20458;-84
2021/04/05 00:20:24;;;;;;;48.10;21.97;;;4.20;99.80;;;;;;5035105;28;20445;-84
2021/04/05 00:22:51;;;;;;;55.70;23.60;;;4.20;99.80;;;;;;5032671;28;21058;-83
2021/04/05 00:25:19;;;;;;;49.17;23.20;;;4.20;99.80;;;;;;5035596;28;20472;-83
2021/04/05 00:27:46;;;;;;;54.27;22.40;;;4.30;99.80;;;;;;5033721;28;20979;-83
2021/04/05 00:30:20;;;;;;;53.60;22.60;;;4.20;99.80;;;;;;5029282;28;21230;-84
2021/04/05 00:32:48;;;;;;;57.63;23.20;;;4.20;99.80;;;;;;5037554;28;20524;-83
2021/04/05 00:35:19;;;;;;;48.60;20.77;;;4.20;99.80;;;;;;5035487;28;20524;-84
2021/04/05 00:37:47;;;;;;;52.27;23.40;;;4.30;99.80;;;;;;5035555;28;20445;-83
2021/04/05 00:40:23;;;;;;;47.63;22.83;;;4.20;99.80;;;;;;5035496;28;20851;-83
2021/04/05 00:42:50;;;;;;;46.60;21.40;;;4.10;99.80;;;;;;5035134;28;20465;-85
2021/04/05 00:45:18;;;;;;;48.90;21.17;;;4.10;99.80;;;;;;5034436;28;20825;-85
2021/04/05 00:47:47;;;;;;;52.07;22.63;;;4.10;99.80;;;;;;5007166;28;20540;-85
2021/04/05 00:50:18;;;;;;;47.40;20.63;;;4.00;99.80;;;;;;5030314;28;20467;-82
2021/04/05 00:52:46;;;;;;;48.33;23.20;;;4.00;99.80;;;;;;5032725;28;20467;-83
2021/04/05 00:55:16;;;;;;;48.63;21.80;;;3.90;99.80;;;;;;5027448;28;20470;-83
2021/04/05 00:57:47;;;;;;;45.90;21.67;;;3.80;99.80;;;;;;5030102;28;21248;-86
2021/04/05 01:00:17;;;;;;;50.30;21.60;;;3.80;99.80;;;;;;5028640;28;20479;-83
2021/04/05 01:02:47;;;;;;;49.77;21.83;;;3.80;99.80;;;;;;5018977;28;20527;-82
2021/04/05 01:05:14;;;;;;;44.97;21.40;;;3.70;99.80;;;;;;5030568;28;21015;-83
2021/04/05 01:07:41;;;;;;;45.10;21.40;;;3.80;99.80;;;;;;5011416;28;20476;-85
2021/04/05 01:10:11;;;;;;;55.70;26.40;;;3.80;99.80;;;;;;5033306;28;20595;-84
2021/04/05 01:12:39;;;;;;;56.17;21.37;;;3.80;99.80;;;;;;5024871;28;20460;-84
2021/04/05 01:15:09;;;;;;;49.13;22.30;;;3.90;99.80;;;;;;5010055;28;20479;-83
2021/04/05 01:17:37;;;;;;;50.70;21.37;;;3.90;99.80;;;;;;5039110;28;20483;-84
2021/04/05 01:20:06;;;;;;;64.10;21.50;;;3.90;99.80;;;;;;5031624;28;20460;-83
2021/04/05 01:22:34;;;;;;;56.10;22.50;;;3.90;99.80;;;;;;5023819;28;20973;-83
2021/04/05 01:25:02;;;;;;;51.23;20.77;;;3.90;99.80;;;;;;5025133;28;20479;-85
2021/04/05 01:27:29;;;;;;;56.97;22.07;;;3.80;99.80;;;;;;5018501;28;20464;-84
2021/04/05 01:29:56;;;;;;;52.07;20.13;;;3.80;99.80;;;;;;5012773;28;20500;-83
2021/04/05 01:32:24;;;;;;;45.47;21.03;;;3.70;99.80;;;;;;5042389;28;20484;-83
2021/04/05 01:34:52;;;;;;;53.00;21.50;;;3.60;99.80;;;;;;5020210;28;20464;-83
2021/04/05 01:37:19;;;;;;;52.70;21.80;;;3.60;99.80;;;;;;5006275;28;20531;-83
2021/04/05 01:39:49;;;;;;;50.90;21.40;;;3.50;99.80;;;;;;5017479;28;20485;-84
2021/04/05 01:42:16;;;;;;;45.13;19.03;;;3.50;99.80;;;;;;5023755;28;20467;-82
2021/04/05 01:44:43;;;;;;;51.00;21.77;;;3.50;99.80;;;;;;5013922;28;20477;-84
2021/04/05 01:47:10;;;;;;;50.23;20.23;;;3.50;99.80;;;;;;5029496;28;20472;-82
2021/04/05 01:49:39;;;;;;;53.73;21.33;;;3.50;99.80;;;;;;5028615;28;20476;-82
2021/04/05 01:52:12;;;;;;;56.20;21.73;;;3.50;99.80;;;;;;5032128;28;20461;-82
2021/04/05 01:54:39;;;;;;;44.08;19.25;;;3.50;99.80;;;;;;5034579;28;20472;-83
2021/04/05 01:57:10;;;;;;;49.53;22.20;;;3.50;99.80;;;;;;5024396;28;20227;-83
2021/04/05 01:59:38;;;;;;;49.60;20.13;;;3.50;99.80;;;;;;5021425;28;20555;-86
2021/04/05 02:02:06;;;;;;;55.80;20.33;;;3.50;99.80;;;;;;5032249;28;21930;-83
2021/04/05 02:04:35;;;;;;;53.93;21.00;;;3.50;99.80;;;;;;5016652;28;20293;-83
2021/04/05 02:07:03;;;;;;;50.80;20.57;;;3.40;99.80;;;;;;5016779;28;20436;-83
2021/04/05 02:09:30;;;;;;;46.77;20.80;;;3.40;99.80;;;;;;5015434;28;20449;-83
2021/04/05 02:11:58;;;;;;;47.50;19.60;;;3.40;99.80;;;;;;5016628;28;20453;-84
2021/04/05 02:14:25;;;;;;;49.83;21.17;;;3.40;99.80;;;;;;5018316;28;20536;-83
2021/04/05 02:16:53;;;;;;;45.70;20.20;;;3.50;99.80;;;;;;5017792;28;21164;-83
2021/04/05 02:19:20;;;;;;;47.13;20.90;;;3.50;99.80;;;;;;5002590;28;20232;-83
2021/04/05 02:21:48;;;;;;;47.70;20.45;;;3.60;99.80;;;;;;5019258;28;20479;-83
2021/04/05 02:24:16;;;;;;;57.20;21.30;;;3.60;99.80;;;;;;5011296;28;20269;-83
2021/04/05 02:26:46;;;;;;;41.13;19.30;;;3.70;99.80;;;;;;5008176;28;20512;-83
2021/04/05 02:29:17;;;;;;;43.53;19.57;;;3.70;99.80;;;;;;5005491;28;20479;-83
2021/04/05 02:31:45;;;;;;;45.57;20.10;;;3.70;99.80;;;;;;5020316;28;20477;-83
2021/04/05 02:34:16;;;;;;;53.87;19.70;;;3.70;99.80;;;;;;4993723;28;20564;-83
2021/04/05 02:36:43;;;;;;;47.90;19.90;;;3.70;99.80;;;;;;5002337;28;20477;-83
2021/04/05 02:39:13;;;;;;;50.53;19.30;;;3.70;99.80;;;;;;4997412;28;20472;-83
2021/04/05 02:41:42;;;;;;;44.92;19.50;;;3.60;99.80;;;;;;5012920;28;20471;-83
2021/04/05 02:44:10;;;;;;;41.40;19.17;;;3.60;99.80;;;;;;5017132;28;20242;-83
2021/04/05 02:46:40;;;;;;;57.23;20.40;;;3.60;99.80;;;;;;4999658;28;20477;-82
2021/04/05 02:49:14;;;;;;;55.40;19.60;;;3.60;99.80;;;;;;5010533;28;20483;-82
2021/04/05 02:51:44;;;;;;;53.57;21.50;;;3.60;99.80;;;;;;5011191;28;20988;-83
2021/04/05 02:54:12;;;;;;;44.63;18.97;;;3.60;99.80;;;;;;4999246;28;20869;-84
2021/04/05 02:56:43;;;;;;;50.13;20.65;;;3.60;99.80;;;;;;5015331;28;20499;-83
2021/04/05 02:59:10;;;;;;;44.03;20.10;;;3.60;99.80;;;;;;4995731;28;20231;-84
2021/04/05 03:01:40;;;;;;;45.70;19.90;;;3.60;99.80;;;;;;5020266;28;20473;-83
2021/04/05 03:04:09;;;;;;;49.17;21.27;;;3.70;99.80;;;;;;5011058;28;20476;-84
2021/04/05 03:06:37;;;;;;;52.37;21.63;;;3.70;99.80;;;;;;5001911;28;20477;-83
2021/04/05 03:09:05;;;;;;;56.63;22.00;;;3.70;99.80;;;;;;5001421;28;20483;-82
2021/04/05 03:11:35;;;;;;;53.40;20.70;;;3.70;99.80;;;;;;5004797;28;20500;-84
2021/04/05 03:14:04;;;;;;;46.40;20.83;;;3.60;99.80;;;;;;4996433;28;20476;-84
2021/04/05 03:16:32;;;;;;;46.58;21.98;;;3.60;99.80;;;;;;5014528;28;20484;-83
2021/04/05 03:19:03;;;;;;;45.63;20.67;;;3.60;99.80;;;;;;5011992;28;20234;-83
2021/04/05 03:21:32;;;;;;;50.23;20.40;;;3.60;99.80;;;;;;5012024;28;20976;-82
2021/04/05 03:24:01;;;;;;;50.03;21.63;;;3.60;99.80;;;;;;5009465;28;20477;-83
2021/04/05 03:26:28;;;;;;;48.57;20.03;;;3.60;99.80;;;;;;4992058;28;20545;-83
2021/04/05 03:28:56;;;;;;;45.57;19.33;;;3.60;99.80;;;;;;5002046;28;21000;-83
2021/04/05 03:31:31;;;;;;;49.60;19.47;;;3.60;99.80;;;;;;5007505;28;20991;-83
2021/04/05 03:34:05;;;;;;;39.90;18.87;;;3.60;99.80;;;;;;5009114;28;20844;-83
2021/04/05 03:36:39;;;;;;;42.40;18.33;;;3.60;99.80;;;;;;5002786;28;20473;-82
2021/04/05 03:39:07;;;;;;;42.50;19.93;;;3.60;99.80;;;;;;5011668;28;20683;-84
2021/04/05 03:41:41;;;;;;;49.37;20.07;;;3.60;99.80;;;;;;5029591;28;20851;-84
2021/04/05 03:44:17;;;;;;;46.00;19.90;;;3.70;99.80;;;;;;5023251;28;20469;-84
2021/04/05 03:46:46;;;;;;;48.03;19.90;;;3.70;99.80;;;;;;5029625;28;20475;-85
2021/04/05 03:49:22;;;;;;;43.27;21.33;;;3.70;99.80;;;;;;5028177;28;20494;-84
2021/04/05 03:51:58;;;;;;;41.50;18.73;;;3.70;99.80;;;;;;5009006;28;20914;-84
2021/04/05 03:54:29;;;;;;;44.70;19.33;;;3.70;99.80;;;;;;5026433;28;20487;-84
2021/04/05 03:56:59;;;;;;;40.30;18.05;;;3.80;99.80;;;;;;5017094;28;20846;-84
2021/04/05 03:59:30;;;;;;;44.97;18.77;;;3.80;99.80;;;;;;5021153;28;20235;-84
2021/04/05 04:02:01;;;;;;;47.37;18.10;;;3.80;99.80;;;;;;5033453;28;20994;-84
2021/04/05 04:04:31;;;;;;;37.47;17.07;;;3.80;99.80;;;;;;5026044;28;21093;-84
2021/04/05 04:07:11;;;;;;;43.17;18.90;;;3.80;99.80;;;;;;5026599;28;20509;-84
2021/04/05 04:09:40;;;;;;;37.53;17.03;;;3.70;99.80;;;;;;5012704;28;21065;-84
2021/04/05 04:12:11;;;;;;;46.93;18.50;;;3.80;99.80;;;;;;5021909;28;20485;-83
2021/04/05 04:14:40;;;;;;;39.20;18.87;;;3.80;99.80;;;;;;5033443;28;20847;-84
2021/04/05 04:17:08;;;;;;;39.10;18.30;;;3.90;99.80;;;;;;5015213;28;20472;-83
2021/04/05 04:19:38;;;;;;;37.90;17.87;;;3.90;99.80;;;;;;5022147;28;20484;-84
2021/04/05 04:22:06;;;;;;;43.23;18.57;;;4.00;99.80;;;;;;5013409;28;20983;-84
2021/04/05 04:24:33;;;;;;;35.40;17.90;;;4.10;99.80;;;;;;5025471;28;20467;-84
2021/04/05 04:27:02;;;;;;;34.20;17.57;;;4.10;99.80;;;;;;5018562;28;20481;-84
2021/04/05 04:29:30;;;;;;;31.43;17.73;;;4.10;99.80;;;;;;5004761;28;20473;-84
2021/04/05 04:31:57;;;;;;;42.43;17.10;;;4.10;99.80;;;;;;5022989;28;20460;-84
2021/04/05 04:34:25;;;;;;;39.20;16.67;;;4.20;99.80;;;;;;5025580;28;20593;-85
2021/04/05 04:36:52;;;;;;;42.47;18.43;;;4.30;99.80;;;;;;5023895;28;20542;-84
2021/04/05 04:39:20;;;;;;;38.23;16.03;;;4.30;99.80;;;;;;5017049;28;20484;-85
2021/04/05 04:41:48;;;;;;;38.87;16.87;;;4.40;99.80;;;;;;4999104;28;20516;-84
2021/04/05 04:44:16;;;;;;;35.33;16.10;;;4.40;99.80;;;;;;5018961;28;20497;-84
2021/04/05 04:46:45;;;;;;;37.73;15.23;;;4.40;99.80;;;;;;5019471;28;20464;-85
2021/04/05 04:49:13;;;;;;;24.53;11.83;;;4.50;99.80;;;;;;5013363;28;20480;-85
2021/04/05 04:51:41;;;;;;;26.00;13.43;;;4.50;99.80;;;;;;5014775;28;20468;-85
2021/04/05 04:54:11;;;;;;;31.27;13.43;;;4.70;99.80;;;;;;5020806;28;20472;-84
2021/04/05 04:56:38;;;;;;;29.90;12.37;;;4.80;99.80;;;;;;5018085;28;20540;-84
2021/04/05 04:59:07;;;;;;;24.83;12.60;;;4.90;99.80;;;;;;5012749;28;20475;-85
2021/04/05 05:01:36;;;;;;;22.50;12.23;;;5.10;99.80;;;;;;5033018;28;21071;-85
2021/04/05 05:04:09;;;;;;;29.67;13.60;;;5.20;99.80;;;;;;5022699;28;20564;-84
2021/04/05 05:06:38;;;;;;;25.87;13.03;;;5.20;99.80;;;;;;5026478;28;20922;-84
2021/04/05 05:09:05;;;;;;;33.17;12.97;;;5.20;99.80;;;;;;5022397;28;20564;-84
2021/04/05 05:11:35;;;;;;;42.90;16.67;;;5.20;99.80;;;;;;5013829;28;20469;-84
2021/04/05 05:14:03;;;;;;;30.70;13.17;;;5.30;99.80;;;;;;5019110;28;20714;-85
2021/04/05 05:16:35;;;;;;;25.83;12.67;;;5.40;99.80;;;;;;5015708;28;20527;-84
2021/04/05 05:19:03;;;;;;;28.47;13.27;;;5.40;99.80;;;;;;5021909;28;20565;-84
2021/04/05 05:21:33;;;;;;;47.43;15.13;;;5.40;99.80;;;;;;5016575;28;20484;-84
2021/04/05 05:24:08;;;;;;;20.67;11.90;;;5.50;99.80;;;;;;5012938;28;21042;-84
2021/04/05 05:26:37;;;;;;;28.50;13.10;;;5.50;99.80;;;;;;5016664;28;20475;-83
2021/04/05 05:29:07;;;;;;;27.73;12.30;;;5.50;99.80;;;;;;5000492;28;20498;-84
2021/04/05 05:31:36;;;;;;;24.27;11.87;;;5.50;99.80;;;;;;5029242;28;20468;-83
2021/04/05 05:34:04;;;;;;;25.40;12.47;;;5.50;99.80;;;;;;5026611;28;20534;-84
2021/04/05 05:36:31;;;;;;;28.70;13.17;;;5.50;99.80;;;;;;5008211;28;20497;-84
2021/04/05 05:39:00;;;;;;;27.13;12.73;;;5.60;99.80;;;;;;5029207;28;20481;-83
2021/04/05 05:41:41;;;;;;;19.43;10.80;;;5.60;99.80;;;;;;5030579;28;20477;-83
2021/04/05 05:44:14;;;;;;;27.50;12.10;;;5.60;99.80;;;;;;5009940;28;20924;-84
2021/04/05 05:46:48;;;;;;;25.90;12.20;;;5.60;99.80;;;;;;5030082;28;20481;-84
2021/04/05 05:49:21;;;;;;;24.57;12.27;;;5.60;99.80;;;;;;5031189;28;20979;-83
2021/04/05 05:52:12;;;;;;;30.40;13.73;;;5.60;99.80;;;;;;5028954;28;20474;-84
2021/04/05 05:55:03;;;;;;;25.43;14.23;;;5.60;99.80;;;;;;5018465;28;21154;-83
2021/04/05 05:57:39;;;;;;;26.17;13.77;;;5.60;99.80;;;;;;4978798;28;20461;-83
2021/04/05 06:00:08;;;;;;;25.37;13.77;;;5.60;99.80;;;;;;4994722;28;20478;-84
2021/04/05 06:02:51;;;;;;;31.10;13.30;;;5.60;99.80;;;;;;5012070;28;20476;-85
2021/04/05 06:05:26;;;;;;;35.97;16.53;;;5.60;99.80;;;;;;5013152;28;20488;-84
2021/04/05 06:08:07;;;;;;;27.80;13.83;;;5.60;99.80;;;;;;4999596;28;20481;-85
2021/04/05 06:10:48;;;;;;;29.77;13.00;;;5.60;99.80;;;;;;5002320;28;20533;-83
2021/04/05 06:13:24;;;;;;;21.63;12.90;;;5.60;99.80;;;;;;5018206;28;20459;-83
2021/04/05 06:16:04;;;;;;;24.20;13.63;;;5.60;99.80;;;;;;5028067;28;20471;-84
2021/04/05 06:18:43;;;;;;;28.60;13.47;;;5.70;99.80;;;;;;5031155;28;20469;-84
2021/04/05 06:21:21;;;;;;;30.23;12.53;;;5.70;99.80;;;;;;5012658;28;20475;-85
2021/04/05 06:23:51;;;;;;;24.17;13.10;;;5.80;99.80;;;;;;5008756;28;20532;-84
2021/04/05 06:26:28;;;;;;;22.07;12.70;;;5.80;99.80;;;;;;5000076;28;20524;-83
2021/04/05 06:29:09;;;;;;;27.10;11.67;;;5.90;99.80;;;;;;5021354;28;20945;-85
2021/04/05 06:31:56;;;;;;;28.60;12.90;;;5.90;99.80;;;;;;5031784;28;20476;-83
2021/04/05 06:34:48;;;;;;;23.83;12.53;;;6.00;99.80;;;;;;5023706;28;20459;-85
2021/04/05 06:37:26;;;;;;;34.33;11.80;;;6.10;99.80;;;;;;5029609;28;20907;-84
2021/04/05 06:39:58;;;;;;;21.77;11.63;;;6.10;99.80;;;;;;5010528;28;20471;-84
2021/04/05 06:42:40;;;;;;;25.73;12.27;;;6.20;99.80;;;;;;5036775;28;20863;-84
2021/04/05 06:45:48;;;;;;;25.23;13.50;;;6.20;99.80;;;;;;5015544;28;20478;-84
2021/04/05 06:48:48;;;;;;;16.83;10.40;;;6.30;99.80;;;;;;5005038;28;20542;-85
2021/04/05 06:51:39;;;;;;;24.73;11.43;;;6.40;99.80;;;;;;5011861;28;20815;-85
2021/04/05 06:54:54;;;;;;;21.27;10.60;;;6.40;99.80;;;;;;5014599;28;20956;-85
2021/04/05 06:57:33;;;;;;;27.10;11.47;;;6.50;99.80;;;;;;5029027;28;20458;-85
2021/04/05 07:00:02;;;;;;;27.00;11.30;;;6.50;99.80;;;;;;5023781;28;20486;-84
2021/04/05 07:03:06;;;;;;;24.50;12.13;;;6.60;99.80;;;;;;5044617;28;20485;-84
2021/04/05 07:05:46;;;;;;;26.93;11.47;;;6.60;99.80;;;;;;5024694;28;20548;-85
2021/04/05 07:08:22;;;;;;;26.10;11.43;;;6.60;99.80;;;;;;5017579;28;20472;-84
2021/04/05 07:11:04;;;;;;;23.40;11.23;;;6.60;99.80;;;;;;5030316;28;20507;-84
2021/04/05 07:13:40;;;;;;;24.73;10.93;;;6.50;99.80;;;;;;5027939;28;20480;-85
2021/04/05 07:16:15;;;;;;;32.40;13.17;;;6.50;99.80;;;;;;5028541;28;20493;-84
2021/04/05 07:19:05;;;;;;;24.37;10.83;;;6.60;99.80;;;;;;5025398;28;20553;-85
2021/04/05 07:21:42;;;;;;;24.77;12.10;;;6.60;99.80;;;;;;5031176;28;20932;-84
2021/04/05 07:24:24;;;;;;;30.63;13.43;;;6.60;99.80;;;;;;5011915;28;20536;-84
2021/04/05 07:27:01;;;;;;;21.37;10.50;;;6.70;99.80;;;;;;5006991;28;20465;-84
2021/04/05 07:29:40;;;;;;;27.67;12.07;;;6.70;99.80;;;;;;5015174;28;20510;-83
2021/04/05 07:32:15;;;;;;;22.60;10.97;;;6.80;99.80;;;;;;5019083;28;20972;-84
2021/04/05 07:34:59;;;;;;;25.57;10.97;;;6.90;99.80;;;;;;5023466;28;20549;-83
2021/04/05 07:37:52;;;;;;;25.13;10.67;;;6.90;99.80;;;;;;5002342;28;20464;-84
2021/04/05 07:40:47;;;;;;;21.43;11.30;;;7.00;99.80;;;;;;5013056;28;20481;-83
2021/04/05 07:43:43;;;;;;;21.73;11.73;;;7.00;99.70;;;;;;5029344;28;20462;-84
2021/04/05 07:46:23;;;;;;;30.60;11.33;;;7.00;99.80;;;;;;5018576;28;20469;-84
2021/04/05 07:48:58;;;;;;;23.83;11.53;;;7.00;99.80;;;;;;5024937;28;20457;-84
2021/04/05 07:51:44;;;;;;;26.53;10.63;;;7.10;99.80;;;;;;5030248;28;20553;-83
2021/04/05 07:54:12;;;;;;;24.47;11.80;;;7.10;99.50;;;;;;5018613;28;20466;-83
2021/04/05 07:56:51;;;;;;;30.67;11.57;;;7.20;99.70;;;;;;5025927;28;20558;-84
2021/04/05 07:59:31;;;;;;;26.83;10.67;;;7.20;99.80;;;;;;5024262;28;20595;-84
2021/04/05 08:02:01;;;;;;;24.70;11.70;;;7.30;99.80;;;;;;5036823;28;20463;-83
2021/04/05 08:04:49;;;;;;;24.83;11.90;;;7.40;99.60;;;;;;5029828;28;20475;-84
2021/04/05 08:07:27;;;;;;;26.47;11.67;;;7.40;99.80;;;;;;5025981;28;20463;-84
2021/04/05 08:10:02;;;;;;;24.83;11.50;;;7.50;99.20;;;;;;4997575;28;20471;-83
2021/04/05 08:12:40;;;;;;;21.07;12.00;;;7.60;99.20;;;;;;5022347;28;21095;-84
2021/04/05 08:15:24;;;;;;;25.77;12.80;;;7.60;99.10;;;;;;5034196;28;20458;-84
2021/04/05 08:18:06;;;;;;;28.27;13.50;;;7.70;98.80;;;;;;5005731;28;20983;-83
2021/04/05 08:20:38;;;;;;;28.33;13.03;;;7.70;98.80;;;;;;5004838;28;20483;-86
2021/04/05 08:23:14;;;;;;;27.73;13.23;;;7.80;98.70;;;;;;5007307;28;20884;-86
2021/04/05 08:25:56;;;;;;;30.67;13.30;;;7.80;98.00;;;;;;5023624;28;22429;-86
2021/04/05 08:28:31;;;;;;;28.20;13.17;;;7.90;98.20;;;;;;5004209;28;20558;-86
2021/04/05 08:31:10;;;;;;;25.07;13.73;;;7.90;98.00;;;;;;5008509;28;20562;-86
2021/04/05 08:33:49;;;;;;;27.10;14.07;;;8.00;98.10;;;;;;5025439;28;20470;-86
2021/04/05 08:36:30;;;;;;;31.57;13.47;;;8.20;97.50;;;;;;5028912;28;20836;-87
2021/04/05 08:39:05;;;;;;;27.93;13.60;;;8.20;96.90;;;;;;5025643;28;20463;-87
2021/04/05 08:41:58;;;;;;;26.50;13.13;;;8.20;96.70;;;;;;5022395;28;20553;-86
2021/04/05 08:44:34;;;;;;;31.93;14.70;;;8.20;97.00;;;;;;5028632;28;20474;-86
2021/04/05 08:47:05;;;;;;;25.80;13.50;;;8.30;96.60;;;;;;5027025;28;20559;-86
2021/04/05 08:49:33;;;;;;;25.83;12.63;;;8.30;96.80;;;;;;5029559;28;20475;-86
2021/04/05 08:52:07;;;;;;;24.60;13.10;;;8.40;96.80;;;;;;5028951;28;20493;-86
2021/04/05 08:54:37;;;;;;;30.37;13.33;;;8.40;96.60;;;;;;5020310;28;20474;-87
2021/04/05 08:57:08;;;;;;;28.70;14.00;;;8.40;96.70;;;;;;5029495;28;20471;-86
2021/04/05 08:59:41;;;;;;;29.57;13.47;;;8.40;96.60;;;;;;5021828;28;20476;-86
2021/04/05 09:02:20;;;;;;;30.70;13.80;;;8.40;96.80;;;;;;5023704;28;20471;-85
2021/04/05 09:04:48;;;;;;;24.03;12.63;;;8.40;97.00;;;;;;5027084;28;20481;-85
2021/04/05 09:07:30;;;;;;;30.90;14.20;;;8.40;97.00;;;;;;5025442;28;20539;-86
2021/04/05 09:10:02;;;;;;;28.20;13.33;;;8.40;96.60;;;;;;5023937;28;20471;-87
2021/04/05 09:12:31;;;;;;;23.97;12.70;;;8.40;96.90;;;;;;5016781;28;20551;-86
2021/04/05 09:15:22;;;;;;;26.60;13.80;;;8.40;97.50;;;;;;5031922;28;20537;-86
2021/04/05 09:18:05;;;;;;;37.43;15.80;;;8.40;96.90;;;;;;5027785;28;20475;-86
2021/04/05 09:20:48;;;;;;;23.63;13.80;;;8.40;96.90;;;;;;5030595;28;20475;-86
2021/04/05 09:23:50;;;;;;;36.20;13.87;;;8.30;97.00;;;;;;5029631;28;20487;-86
2021/04/05 09:26:50;;;;;;;31.07;14.07;;;8.20;97.40;;;;;;5013706;28;20477;-86
2021/04/05 09:29:34;;;;;;;29.33;14.00;;;8.20;97.60;;;;;;5028223;28;20476;-85
2021/04/05 09:32:23;;;;;;;29.23;14.67;;;8.20;97.60;;;;;;5029312;28;20470;-83
2021/04/05 09:35:05;;;;;;;28.40;12.47;;;8.10;98.10;;;;;;5029908;28;20493;-88
2021/04/05 09:37:55;;;;;;;31.57;15.23;;;8.20;98.10;;;;;;5021992;28;20459;-88
2021/04/05 09:40:31;;;;;;;29.90;15.10;;;8.20;98.10;;;;;;5021708;28;20455;-88
2021/04/05 09:43:11;;;;;;;27.70;14.03;;;8.10;98.30;;;;;;5028912;28;20475;-86
2021/04/05 09:45:43;;;;;;;24.17;12.17;;;8.10;98.80;;;;;;5019589;28;20476;-86
2021/04/05 09:48:50;;;;;;;22.07;13.43;;;8.20;98.70;;;;;;5022666;28;20479;-85
2021/04/05 09:51:58;;;;;;;33.10;16.00;;;8.30;98.10;;;;;;4974790;28;20540;-86
2021/04/05 09:54:34;;;;;;;33.90;13.07;;;8.40;97.70;;;;;;4980800;28;20493;-87
2021/04/05 09:57:07;;;;;;;27.20;13.23;;;8.40;98.00;;;;;;5019664;28;20477;-86
2021/04/05 09:59:41;;;;;;;32.67;14.27;;;8.50;97.50;;;;;;5016652;28;20573;-87
2021/04/05 10:02:11;;;;;;;25.07;14.53;;;8.60;97.80;;;;;;5031683;28;20486;-86
2021/04/05 10:04:41;;;;;;;28.10;13.93;;;8.60;97.40;;;;;;5024628;28;20480;-86
2021/04/05 10:07:10;;;;;;;21.23;12.20;;;8.60;97.70;;;;;;5024289;28;20481;-86
2021/04/05 10:09:38;;;;;;;22.37;11.30;;;8.70;97.10;;;;;;5015997;28;20561;-86
2021/04/05 10:12:08;;;;;;;23.40;11.87;;;8.80;97.10;;;;;;5023475;28;20853;-86
2021/04/05 10:14:41;;;;;;;21.40;12.03;;;8.80;97.00;;;;;;5022997;28;20465;-85
2021/04/05 10:17:09;;;;;;;19.53;10.77;;;8.70;97.70;;;;;;5034174;28;20500;-87
2021/04/05 10:19:40;;;;;;;22.73;10.03;;;8.60;98.40;;;;;;5014949;28;20482;-85
2021/04/05 10:22:11;;;;;;;19.67;12.03;;;8.50;99.20;;;;;;5007694;28;20480;-86
2021/04/05 10:24:42;;;;;;;17.47;11.67;;;8.50;99.20;;;;;;4993262;28;20469;-88
2021/04/05 10:27:12;;;;;;;25.57;11.83;;;8.50;99.50;;;;;;5023943;28;20534;-87
2021/04/05 10:29:42;;;;;;;23.07;12.00;;;8.50;99.80;;;;;;5007959;28;20471;-87
2021/04/05 10:32:14;;;;;;;22.87;11.30;;;8.40;99.80;;;;;;5028305;28;20474;-86
2021/04/05 10:34:46;;;;;;;23.80;11.90;;;8.40;99.80;;;;;;5027931;28;20478;-86
2021/04/05 10:37:16;;;;;;;18.33;10.57;;;8.20;99.80;;;;;;5026141;28;20467;-85
2021/04/05 10:39:48;;;;;;;20.83;10.77;;;8.10;99.80;;;;;;5014861;28;20540;-85
2021/04/05 10:42:22;;;;;;;21.00;11.20;;;8.00;99.80;;;;;;5001566;28;20462;-87
2021/04/05 10:44:58;;;;;;;22.10;11.53;;;7.90;99.80;;;;;;5019641;28;20475;-88
2021/04/05 10:47:31;;;;;;;17.70;10.43;;;7.70;99.80;;;;;;5016769;28;20489;-87
2021/04/05 10:50:02;;;;;;;32.63;12.13;;;7.50;99.80;;;;;;5006503;28;20467;-88
2021/04/05 10:52:35;;;;;;;23.00;13.40;;;7.40;99.80;;;;;;5011782;28;20536;-88
2021/04/05 10:55:03;;;;;;;23.57;11.67;;;7.30;99.80;;;;;;5035515;28;20531;-86
2021/04/05 10:57:35;;;;;;;22.80;12.17;;;7.20;99.80;;;;;;5018976;28;20482;-86
2021/04/05 11:00:06;;;;;;;20.47;11.30;;;7.10;99.80;;;;;;5013029;28;20481;-86
2021/04/05 11:02:41;;;;;;;28.47;11.63;;;7.10;99.80;;;;;;5027667;28;20474;-86
2021/04/05 11:05:11;;;;;;;27.20;13.67;;;7.10;99.80;;;;;;5019197;28;20565;-86
2021/04/05 11:07:45;;;;;;;21.73;13.77;;;7.20;99.80;;;;;;5019476;28;20469;-87
2021/04/05 11:10:20;;;;;;;20.50;12.33;;;7.20;99.80;;;;;;5019282;28;20469;-87
2021/04/05 11:12:52;;;;;;;25.20;12.20;;;7.10;99.80;;;;;;5018023;28;20457;-86
2021/04/05 11:15:21;;;;;;;21.57;10.60;;;7.00;99.80;;;;;;5016205;28;21000;-86
2021/04/05 11:17:51;;;;;;;23.67;11.93;;;7.00;99.80;;;;;;5026216;28;20484;-86
2021/04/05 11:20:22;;;;;;;26.37;12.07;;;6.90;99.80;;;;;;5023079;28;20578;-86
2021/04/05 11:22:56;;;;;;;24.30;13.27;;;6.90;99.80;;;;;;5022191;28;20474;-86
2021/04/05 11:25:29;;;;;;;26.93;12.63;;;6.80;99.80;;;;;;5022683;28;20541;-86
2021/04/05 11:28:07;;;;;;;25.33;12.00;;;6.80;99.80;;;;;;5015562;28;20498;-86
2021/04/05 11:30:38;;;;;;;26.20;12.57;;;6.80;99.80;;;;;;5030575;28;20457;-86
2021/04/05 11:33:08;;;;;;;19.73;11.27;;;6.80;99.80;;;;;;5008864;28;20474;-86
2021/04/05 11:35:37;;;;;;;21.00;12.47;;;6.70;99.80;;;;;;5015067;28;20530;-86
2021/04/05 11:38:09;;;;;;;18.97;11.70;;;6.70;99.80;;;;;;5014342;28;20473;-86
2021/04/05 11:40:37;;;;;;;31.43;13.57;;;6.60;99.80;;;;;;5011499;28;20972;-86
2021/04/05 11:43:13;;;;;;;21.60;11.67;;;6.50;99.80;;;;;;5015203;28;20496;-86
2021/04/05 11:45:44;;;;;;;26.43;12.50;;;6.40;99.80;;;;;;5018330;28;20567;-86
2021/04/05 11:48:16;;;;;;;24.00;13.03;;;6.40;99.80;;;;;;5021949;28;20596;-86
2021/04/05 11:50:45;;;;;;;26.20;13.20;;;6.40;99.80;;;;;;5022225;28;20533;-85
2021/04/05 11:53:22;;;;;;;22.13;11.70;;;6.40;99.80;;;;;;5018247;28;20480;-86
2021/04/05 11:56:01;;;;;;;22.80;11.53;;;6.40;99.80;;;;;;5018961;28;20476;-87
2021/04/05 11:58:31;;;;;;;6.57;5.03;;;6.40;99.80;;;;;;5012622;28;20568;-85
2021/04/05 12:01:03;;;;;;;10.43;6.30;;;6.40;99.80;;;;;;5006779;28;20628;-86
2021/04/05 12:03:34;;;;;;;7.20;5.43;;;6.30;99.80;;;;;;5031268;28;20551;-85
2021/04/05 12:06:07;;;;;;;4.13;3.43;;;6.20;99.80;;;;;;5010127;28;20491;-85
2021/04/05 12:08:40;;;;;;;9.30;3.30;;;6.10;99.80;;;;;;5008489;28;20467;-86
2021/04/05 12:11:09;;;;;;;4.43;2.97;;;6.20;99.80;;;;;;5022330;28;20518;-84
2021/04/05 12:13:41;;;;;;;4.63;2.53;;;6.10;99.80;;;;;;5004211;28;20557;-85
2021/04/05 12:16:10;;;;;;;4.40;2.80;;;6.00;99.80;;;;;;5009393;28;20561;-85
2021/04/05 12:18:38;;;;;;;3.27;2.67;;;6.00;99.80;;;;;;5023338;28;20476;-85
2021/04/05 12:21:11;;;;;;;3.13;2.80;;;5.90;99.80;;;;;;5025770;28;21794;-86
2021/04/05 12:23:39;;;;;;;3.83;2.87;;;5.90;99.80;;;;;;5012335;28;21521;-85
2021/04/05 12:26:07;;;;;;;2.50;2.30;;;5.90;99.80;;;;;;5012531;28;20476;-85
2021/04/05 12:28:37;;;;;;;2.67;2.40;;;5.90;99.80;;;;;;5004489;28;20472;-85
2021/04/05 12:31:07;;;;;;;4.13;2.27;;;5.90;99.80;;;;;;5013739;28;20509;-85
2021/04/05 12:33:54;;;;;;;2.20;2.00;;;5.90;99.80;;;;;;5014561;28;21068;-85
2021/04/05 12:36:31;;;;;;;2.17;1.80;;;5.80;99.80;;;;;;5014980;28;20526;-86
2021/04/05 12:39:01;;;;;;;1.83;1.73;;;5.70;99.80;;;;;;5016937;28;20551;-87
2021/04/05 12:41:33;;;;;;;2.03;1.00;;;5.60;99.80;;;;;;5017465;28;20464;-87
2021/04/05 12:44:02;;;;;;;1.40;1.30;;;5.20;99.80;;;;;;5022212;28;20481;-86
2021/04/05 12:46:30;;;;;;;1.53;1.43;;;5.00;99.80;;;;;;5023855;28;20488;-85
2021/04/05 12:49:01;;;;;;;1.47;1.37;;;4.90;99.80;;;;;;5025524;28;20491;-85
2021/04/05 12:51:29;;;;;;;1.20;1.10;;;4.90;99.80;;;;;;5024279;28;20495;-85
2021/04/05 12:54:05;;;;;;;1.90;1.10;;;4.90;99.80;;;;;;5025261;28;20476;-85
2021/04/05 12:56:32;;;;;;;2.30;1.50;;;4.90;99.80;;;;;;5020560;28;20554;-85
2021/04/05 12:59:01;;;;;;;4.17;1.40;;;5.00;99.80;;;;;;5007979;28;20525;-84
2021/04/05 13:01:34;;;;;;;1.67;1.03;;;5.00;99.80;;;;;;5032131;28;20471;-85
2021/04/05 13:04:04;;;;;;;2.03;1.10;;;4.90;99.80;;;;;;5025583;28;20456;-85
2021/04/05 13:06:43;;;;;;;1.20;1.10;;;5.00;99.80;;;;;;5014280;28;20581;-86
2021/04/05 13:09:16;;;;;;;1.33;1.10;;;5.00;99.80;;;;;;5031800;28;20311;-85